createdAt,value
2023-03-05T00:00:17.737Z,98953.78
2023-03-05T00:01:33.527Z,98958.25
2023-03-05T00:02:40.056Z,98952.91
2023-03-05T00:03:47.254Z,98957.34
2023-03-05T00:04:51.026Z,98951.31
2023-03-05T00:05:57.917Z,98954.78
2023-03-05T00:07:01.441Z,98956.47
2023-03-05T00:08:12.039Z,98958.25
2023-03-05T00:09:16.775Z,98954.78
2023-03-05T00:10:22.176Z,98950.50
2023-03-05T00:11:30.330Z,98955.75
2023-03-05T00:12:34.191Z,98954.06
2023-03-05T00:13:39.145Z,98954.91
2023-03-05T00:14:42.823Z,98952.19
2023-03-05T00:15:49.458Z,98952.38
2023-03-05T00:16:53.474Z,98950.94
2023-03-05T00:17:57.141Z,98951.25
2023-03-05T00:19:02.177Z,98951.53
2023-03-05T00:20:12.001Z,98948.53
2023-03-05T00:21:32.501Z,98946.63
2023-03-05T00:22:36.901Z,98955.44
2023-03-05T00:23:40.473Z,98954.09
2023-03-05T00:24:44.390Z,98953.22
2023-03-05T00:25:48.357Z,98948.97
2023-03-05T00:26:53.353Z,98950.59
2023-03-05T00:27:57.079Z,98947.97
2023-03-05T00:29:01.302Z,98955.00
2023-03-05T00:30:10.612Z,98942.09
2023-03-05T00:31:14.187Z,98947.97
2023-03-05T00:32:19.061Z,98947.00
2023-03-05T00:33:22.959Z,98946.16
2023-03-05T00:34:28.328Z,98938.25
2023-03-05T00:35:34.135Z,98937.47
2023-03-05T00:36:48.677Z,98934.44
2023-03-05T00:37:53.025Z,98937.50
2023-03-05T00:38:58.497Z,98939.75
2023-03-05T00:40:02.982Z,98934.31
2023-03-05T00:41:09.502Z,98938.91
2023-03-05T00:42:13.738Z,98939.03
2023-03-05T00:43:17.698Z,98935.34
2023-03-05T00:44:21.705Z,98933.66
2023-03-05T00:45:25.611Z,98927.69
2023-03-05T00:46:29.492Z,98931.50
2023-03-05T00:47:34.129Z,98932.44
2023-03-05T00:48:38.017Z,98931.66
2023-03-05T00:49:41.543Z,98928.00
2023-03-05T00:50:48.795Z,98929.69
2023-03-05T00:51:52.978Z,98921.94
2023-03-05T00:52:56.949Z,98921.81
2023-03-05T00:54:00.877Z,98926.25
2023-03-05T00:55:12.657Z,98924.44
2023-03-05T00:56:16.779Z,98920.81
2023-03-05T00:57:20.728Z,98920.88
2023-03-05T00:58:24.992Z,98919.03
2023-03-05T00:59:29.394Z,98915.47
2023-03-05T01:00:33.154Z,98923.63
2023-03-05T01:01:37.632Z,98921.66
2023-03-05T01:02:41.744Z,98920.03
2023-03-05T01:03:45.499Z,98919.03
2023-03-05T01:04:49.520Z,98925.84
2023-03-05T01:05:53.218Z,98922.31
2023-03-05T01:06:57.433Z,98927.63
2023-03-05T01:08:03.070Z,98922.31
2023-03-05T01:09:11.633Z,98924.84
2023-03-05T01:10:15.604Z,98923.00
2023-03-05T01:11:19.410Z,98924.66
2023-03-05T01:12:23.718Z,98921.00
2023-03-05T01:13:27.580Z,98923.72
2023-03-05T01:14:31.292Z,98913.22
2023-03-05T01:15:35.547Z,98912.41
2023-03-05T01:16:39.487Z,98908.03
2023-03-05T01:17:43.091Z,98918.38
2023-03-05T01:18:46.972Z,98918.38
2023-03-05T01:19:50.574Z,98907.88
2023-03-05T01:20:54.713Z,98917.38
2023-03-05T01:21:59.278Z,98908.53
2023-03-05T01:23:03.072Z,98917.25
2023-03-05T01:24:11.695Z,98919.78
2023-03-05T01:25:19.482Z,98918.94
2023-03-05T01:26:23.580Z,98923.44
2023-03-05T01:27:28.349Z,98919.44
2023-03-05T01:28:32.863Z,98916.78
2023-03-05T01:29:37.941Z,98920.16
2023-03-05T01:30:44.447Z,98919.16
2023-03-05T01:31:48.642Z,98920.00
2023-03-05T01:32:52.555Z,98918.31
2023-03-05T01:33:56.356Z,98922.16
2023-03-05T01:35:02.863Z,98927.28
2023-03-05T01:36:17.002Z,98923.34
2023-03-05T01:37:21.089Z,98915.47
2023-03-05T01:38:25.038Z,98916.13
2023-03-05T01:39:31.205Z,98921.22
2023-03-05T01:40:35.195Z,98922.91
2023-03-05T01:41:38.841Z,98922.44
2023-03-05T01:42:59.290Z,98918.34
2023-03-05T01:44:03.030Z,98922.66
2023-03-05T01:45:16.209Z,98922.09
2023-03-05T01:46:37.500Z,98921.00
2023-03-05T01:47:41.449Z,98918.63
2023-03-05T01:48:53.226Z,98915.44
2023-03-05T01:49:57.993Z,98911.88
2023-03-05T01:51:01.624Z,98916.06
2023-03-05T01:52:21.817Z,98921.25
2023-03-05T01:53:25.510Z,98919.53
2023-03-05T01:54:48.302Z,98915.06
2023-03-05T01:55:51.938Z,98915.06
2023-03-05T01:57:02.426Z,98918.63
2023-03-05T01:58:13.677Z,98920.16
2023-03-05T01:59:19.122Z,98917.53
2023-03-05T02:00:48.090Z,98914.13
2023-03-05T02:01:58.523Z,98915.19
2023-03-05T02:03:18.813Z,98910.94
2023-03-05T02:04:33.263Z,98916.91
2023-03-05T02:05:45.484Z,98917.78
2023-03-05T02:06:51.007Z,98914.13
2023-03-05T02:07:59.379Z,98919.31
2023-03-05T02:09:03.512Z,98915.06
2023-03-05T02:11:01.705Z,98916.69
2023-03-05T02:12:13.041Z,98908.81
2023-03-05T02:13:26.144Z,98908.69
2023-03-05T02:14:30.309Z,98908.97
2023-03-05T02:15:36.008Z,98906.09
2023-03-05T02:16:40.238Z,98901.75
2023-03-05T02:17:44.960Z,98906.25
2023-03-05T02:18:51.151Z,98913.13
2023-03-05T02:20:06.158Z,98914.88
2023-03-05T02:21:12.593Z,98909.66
2023-03-05T02:22:20.583Z,98906.09
2023-03-05T02:23:36.999Z,98908.13
2023-03-05T02:24:41.371Z,98909.09
2023-03-05T02:25:45.874Z,98914.22
2023-03-05T02:26:49.811Z,98904.00
2023-03-05T02:28:04.564Z,98911.78
2023-03-05T02:29:18.817Z,98906.69
2023-03-05T02:30:23.018Z,98908.41
2023-03-05T02:31:27.978Z,98902.44
2023-03-05T02:32:31.926Z,98901.44
2023-03-05T02:33:39.130Z,98902.09
2023-03-05T02:34:43.712Z,98907.06
2023-03-05T02:35:47.433Z,98898.34
2023-03-05T02:36:56.848Z,98911.50
2023-03-05T02:38:01.706Z,98906.34
2023-03-05T02:39:07.116Z,98907.25
2023-03-05T02:40:13.296Z,98901.59
2023-03-05T02:41:17.276Z,98909.53
2023-03-05T02:42:21.863Z,98896.34
2023-03-05T02:43:26.492Z,98898.03
2023-03-05T02:44:30.695Z,98892.72
2023-03-05T02:45:34.513Z,98898.72
2023-03-05T02:46:38.560Z,98897.69
2023-03-05T02:47:42.680Z,98889.72
2023-03-05T02:48:46.197Z,98890.50
2023-03-05T02:49:50.364Z,98890.66
2023-03-05T02:50:55.469Z,98887.88
2023-03-05T02:51:59.090Z,98891.31
2023-03-05T02:53:02.707Z,98888.69
2023-03-05T02:54:15.810Z,98888.53
2023-03-05T02:55:20.878Z,98890.38
2023-03-05T02:56:24.725Z,98887.75
2023-03-05T02:57:28.937Z,98882.50
2023-03-05T02:58:32.668Z,98886.91
2023-03-05T02:59:36.510Z,98884.63
2023-03-05T03:01:57.481Z,98883.84
2023-03-05T03:03:12.349Z,98882.78
2023-03-05T03:04:26.264Z,98880.25
2023-03-05T03:05:48.030Z,98881.00
2023-03-05T03:06:52.115Z,98887.88
2023-03-05T03:07:55.731Z,98891.34
2023-03-05T03:08:59.732Z,98878.22
2023-03-05T03:10:14.293Z,98883.72
2023-03-05T03:11:21.872Z,98879.31
2023-03-05T03:12:25.905Z,98881.00
2023-03-05T03:13:29.509Z,98881.28
2023-03-05T03:14:39.252Z,98876.19
2023-03-05T03:15:43.597Z,98877.25
2023-03-05T03:16:48.460Z,98877.13
2023-03-05T03:17:52.717Z,98870.09
2023-03-05T03:18:56.725Z,98881.38
2023-03-05T03:20:02.971Z,98878.75
2023-03-05T03:21:09.623Z,98881.22
2023-03-05T03:22:16.143Z,98884.63
2023-03-05T03:23:19.744Z,98881.94
2023-03-05T03:24:23.655Z,98883.72
2023-03-05T03:25:27.692Z,98887.09
2023-03-05T03:26:32.010Z,98887.97
2023-03-05T03:27:36.226Z,98880.09
2023-03-05T03:28:39.885Z,98884.41
2023-03-05T03:29:43.496Z,98884.06
2023-03-05T03:30:47.527Z,98883.84
2023-03-05T03:31:52.211Z,98876.84
2023-03-05T03:32:55.800Z,98879.47
2023-03-05T03:33:59.497Z,98877.03
2023-03-05T03:35:03.959Z,98873.50
2023-03-05T03:36:10.925Z,98878.66
2023-03-05T03:37:15.100Z,98878.59
2023-03-05T03:38:18.795Z,98880.31
2023-03-05T03:39:24.101Z,98874.22
2023-03-05T03:40:27.693Z,98873.34
2023-03-05T03:41:32.360Z,98871.59
2023-03-05T03:42:36.013Z,98866.47
2023-03-05T03:43:42.838Z,98870.66
2023-03-05T03:44:47.143Z,98862.84
2023-03-05T03:45:50.888Z,98863.78
2023-03-05T03:46:55.143Z,98864.47
2023-03-05T03:48:00.863Z,98860.88
2023-03-05T03:49:23.913Z,98866.34
2023-03-05T03:50:27.772Z,98854.91
2023-03-05T03:51:44.215Z,98858.56
2023-03-05T03:52:48.157Z,98863.91
2023-03-05T03:53:52.823Z,98863.81
2023-03-05T03:55:03.539Z,98859.47
2023-03-05T03:56:09.074Z,98855.25
2023-03-05T03:57:13.920Z,98850.22
2023-03-05T03:58:17.703Z,98863.22
2023-03-05T03:59:22.312Z,98849.09
2023-03-05T04:00:26.225Z,98853.41
2023-03-05T04:01:30.472Z,98847.31
2023-03-05T04:02:34.889Z,98851.88
2023-03-05T04:03:38.841Z,98852.22
2023-03-05T04:04:42.777Z,98853.84
2023-03-05T04:05:46.561Z,98851.13
2023-03-05T04:06:50.190Z,98857.31
2023-03-05T04:07:54.856Z,98851.22
2023-03-05T04:08:59.129Z,98837.94
2023-03-05T04:10:04.410Z,98850.00
2023-03-05T04:11:13.766Z,98848.50
2023-03-05T04:12:21.928Z,98848.41
2023-03-05T04:13:26.810Z,98848.25
2023-03-05T04:14:30.986Z,98842.22
2023-03-05T04:15:35.402Z,98848.25
2023-03-05T04:16:39.961Z,98850.78
2023-03-05T04:17:43.681Z,98844.69
2023-03-05T04:18:47.771Z,98847.59
2023-03-05T04:19:51.502Z,98838.81
2023-03-05T04:20:55.364Z,98840.81
2023-03-05T04:21:59.777Z,98842.34
2023-03-05T04:23:04.215Z,98839.59
2023-03-05T04:24:11.920Z,98841.38
2023-03-05T04:25:16.128Z,98843.41
2023-03-05T04:26:19.980Z,98842.34
2023-03-05T04:27:24.113Z,98831.94
2023-03-05T04:28:28.117Z,98830.44
2023-03-05T04:29:32.779Z,98831.06
2023-03-05T04:30:37.346Z,98825.41
2023-03-05T04:31:41.340Z,98822.22
2023-03-05T04:32:45.145Z,98829.56
2023-03-05T04:33:48.862Z,98827.72
2023-03-05T04:34:52.560Z,98823.91
2023-03-05T04:35:56.692Z,98824.56
2023-03-05T04:37:00.473Z,98826.97
2023-03-05T04:38:04.776Z,98820.88
2023-03-05T04:39:10.304Z,98821.78
2023-03-05T04:40:14.567Z,98815.78
2023-03-05T04:41:18.452Z,98823.63
2023-03-05T04:42:23.062Z,98819.31
2023-03-05T04:43:27.337Z,98822.56
2023-03-05T04:44:31.634Z,98821.00
2023-03-05T04:45:35.334Z,98812.91
2023-03-05T04:46:39.548Z,98817.41
2023-03-05T04:47:44.253Z,98817.28
2023-03-05T04:48:48.241Z,98817.13
2023-03-05T04:49:52.128Z,98815.25
2023-03-05T04:50:58.041Z,98820.59
2023-03-05T04:52:01.990Z,98817.47
2023-03-05T04:53:09.874Z,98820.94
2023-03-05T04:54:13.679Z,98819.94
2023-03-05T04:55:18.504Z,98823.22
2023-03-05T04:56:22.443Z,98820.59
2023-03-05T04:57:26.660Z,98818.72
2023-03-05T04:58:30.725Z,98818.13
2023-03-05T04:59:34.620Z,98823.22
2023-03-05T05:00:39.098Z,98819.75
2023-03-05T05:01:43.376Z,98815.34
2023-03-05T05:02:51.127Z,98811.78
2023-03-05T05:03:55.129Z,98823.13
2023-03-05T05:04:58.944Z,98811.78
2023-03-05T05:06:03.330Z,98806.53
2023-03-05T05:07:09.112Z,98817.84
2023-03-05T05:08:13.180Z,98798.84
2023-03-05T05:09:17.179Z,98803.06
2023-03-05T05:10:21.491Z,98797.91
2023-03-05T05:11:25.627Z,98804.09
2023-03-05T05:12:31.242Z,98803.06
2023-03-05T05:13:35.497Z,98799.59
2023-03-05T05:14:39.385Z,98801.47
2023-03-05T05:15:42.944Z,98792.81
2023-03-05T05:16:46.865Z,98794.63
2023-03-05T05:17:50.879Z,98791.94
2023-03-05T05:18:54.713Z,98800.22
2023-03-05T05:19:58.469Z,98800.22
2023-03-05T05:21:02.111Z,98791.53
2023-03-05T05:22:07.199Z,98796.69
2023-03-05T05:23:13.914Z,98790.66
2023-03-05T05:24:17.847Z,98794.22
2023-03-05T05:25:21.754Z,98796.09
2023-03-05T05:26:26.317Z,98793.44
2023-03-05T05:27:30.052Z,98795.06
2023-03-05T05:28:35.861Z,98793.38
2023-03-05T05:29:39.845Z,98794.28
2023-03-05T05:30:43.715Z,98796.84
2023-03-05T05:31:47.717Z,98789.81
2023-03-05T05:32:51.528Z,98788.97
2023-03-05T05:33:55.223Z,98791.59
2023-03-05T05:35:00.416Z,98789.09
2023-03-05T05:36:09.185Z,98784.19
2023-03-05T05:37:13.029Z,98787.66
2023-03-05T05:38:17.197Z,98788.66
2023-03-05T05:39:20.914Z,98787.66
2023-03-05T05:40:24.969Z,98790.28
2023-03-05T05:41:28.836Z,98784.16
2023-03-05T05:42:33.983Z,98789.59
2023-03-05T05:43:40.772Z,98787.81
2023-03-05T05:44:45.423Z,98786.28
2023-03-05T05:45:49.604Z,98788.81
2023-03-05T05:46:53.490Z,98786.97
2023-03-05T05:47:57.205Z,98786.97
2023-03-05T05:49:01.192Z,98790.44
2023-03-05T05:50:09.651Z,98788.81
2023-03-05T05:51:18.432Z,98791.44
2023-03-05T05:52:23.399Z,98787.03
2023-03-05T05:53:28.565Z,98795.59
2023-03-05T05:54:34.860Z,98791.22
2023-03-05T05:55:41.673Z,98793.91
2023-03-05T05:56:45.622Z,98793.84
2023-03-05T05:57:49.525Z,98800.94
2023-03-05T05:58:53.866Z,98793.13
2023-03-05T05:59:57.876Z,98803.81
2023-03-05T06:01:02.748Z,98807.09
2023-03-05T06:02:18.576Z,98802.78
2023-03-05T06:03:22.373Z,98800.00
2023-03-05T06:04:26.564Z,98800.09
2023-03-05T06:05:30.649Z,98812.41
2023-03-05T06:06:35.201Z,98807.16
2023-03-05T06:07:41.446Z,98810.84
2023-03-05T06:08:45.435Z,98818.63
2023-03-05T06:09:49.185Z,98821.13
2023-03-05T06:10:56.197Z,98820.88
2023-03-05T06:11:59.887Z,98822.41
2023-03-05T06:13:04.194Z,98821.50
2023-03-05T06:14:13.282Z,98815.31
2023-03-05T06:15:19.843Z,98820.41
2023-03-05T06:16:26.265Z,98831.44
2023-03-05T06:17:31.158Z,98830.59
2023-03-05T06:18:35.767Z,98823.03
2023-03-05T06:19:39.417Z,98828.75
2023-03-05T06:20:43.027Z,98822.66
2023-03-05T06:21:49.005Z,98822.53
2023-03-05T06:22:52.657Z,98817.25
2023-03-05T06:23:58.830Z,98827.56
2023-03-05T06:25:02.950Z,98825.28
2023-03-05T06:26:12.879Z,98818.03
2023-03-05T06:27:17.066Z,98824.88
2023-03-05T06:28:21.850Z,98809.03
2023-03-05T06:29:26.381Z,98818.72
2023-03-05T06:30:30.251Z,98816.06
2023-03-05T06:31:36.770Z,98816.41
2023-03-05T06:32:40.808Z,98801.91
2023-03-05T06:33:45.557Z,98803.34
2023-03-05T06:34:50.924Z,98805.84
2023-03-05T06:35:54.789Z,98800.53
2023-03-05T06:36:58.940Z,98801.63
2023-03-05T06:38:02.604Z,98793.13
2023-03-05T06:39:10.111Z,98794.19
2023-03-05T06:40:15.767Z,98795.22
2023-03-05T06:41:30.450Z,98795.94
2023-03-05T06:42:35.335Z,98792.25
2023-03-05T06:43:43.544Z,98796.47
2023-03-05T06:44:48.414Z,98788.78
2023-03-05T06:46:04.745Z,98790.38
2023-03-05T06:47:11.991Z,98792.34
2023-03-05T06:48:16.485Z,98789.78
2023-03-05T06:49:20.603Z,98788.59
2023-03-05T06:50:24.985Z,98779.72
2023-03-05T06:51:36.751Z,98789.28
2023-03-05T06:52:41.152Z,98786.00
2023-03-05T06:53:47.242Z,98790.31
2023-03-05T06:54:55.954Z,98784.13
2023-03-05T06:56:01.702Z,98782.97
2023-03-05T06:57:11.591Z,98788.94
2023-03-05T06:58:15.329Z,98796.72
2023-03-05T06:59:18.929Z,98787.66
2023-03-05T07:00:24.883Z,98791.22
2023-03-05T07:01:28.733Z,98792.41
2023-03-05T07:02:32.883Z,98793.16
2023-03-05T07:03:37.631Z,98800.88
2023-03-05T07:04:41.776Z,98791.41
2023-03-05T07:05:46.186Z,98792.19
2023-03-05T07:06:49.942Z,98798.06
2023-03-05T07:07:54.271Z,98792.56
2023-03-05T07:09:01.492Z,98788.94
2023-03-05T07:10:09.050Z,98799.44
2023-03-05T07:11:18.021Z,98796.03
2023-03-05T07:12:22.477Z,98794.44
2023-03-05T07:13:28.165Z,98789.38
2023-03-05T07:14:32.570Z,98790.28
2023-03-05T07:15:40.460Z,98783.47
2023-03-05T07:16:44.158Z,98787.78
2023-03-05T07:17:49.196Z,98781.84
2023-03-05T07:18:55.002Z,98780.22
2023-03-05T07:19:58.919Z,98783.03
2023-03-05T07:21:09.903Z,98784.28
2023-03-05T07:22:13.798Z,98781.94
2023-03-05T07:23:17.736Z,98775.50
2023-03-05T07:24:21.498Z,98778.06
2023-03-05T07:25:25.243Z,98779.97
2023-03-05T07:26:33.700Z,98775.09
2023-03-05T07:27:39.296Z,98782.94
2023-03-05T07:28:44.273Z,98781.59
2023-03-05T07:29:48.464Z,98783.22
2023-03-05T07:31:04.779Z,98781.41
2023-03-05T07:32:10.149Z,98780.25
2023-03-05T07:33:13.788Z,98777.38
2023-03-05T07:34:17.418Z,98777.38
2023-03-05T07:35:21.315Z,98780.25
2023-03-05T07:36:27.970Z,98779.56
2023-03-05T07:37:35.217Z,98774.31
2023-03-05T07:38:41.473Z,98779.22
2023-03-05T07:39:47.129Z,98784.53
2023-03-05T07:40:51.373Z,98770.50
2023-03-05T07:41:55.093Z,98772.06
2023-03-05T07:42:58.859Z,98776.25
2023-03-05T07:44:02.708Z,98773.91
2023-03-05T07:45:09.866Z,98770.63
2023-03-05T07:46:17.710Z,98767.75
2023-03-05T07:47:21.437Z,98770.25
2023-03-05T07:48:25.869Z,98766.53
2023-03-05T07:49:29.410Z,98770.09
2023-03-05T07:50:33.564Z,98767.69
2023-03-05T07:51:37.855Z,98766.63
2023-03-05T07:52:41.470Z,98767.75
2023-03-05T07:53:48.548Z,98770.50
2023-03-05T07:54:52.289Z,98766.97
2023-03-05T07:55:56.065Z,98760.72
2023-03-05T07:57:00.223Z,98763.34
2023-03-05T07:58:04.272Z,98760.88
2023-03-05T07:59:13.490Z,98751.66
2023-03-05T08:00:19.053Z,98763.53
2023-03-05T08:01:22.990Z,98758.97
2023-03-05T08:02:27.479Z,98757.13
2023-03-05T08:03:31.438Z,98754.59
2023-03-05T08:04:35.569Z,98748.34
2023-03-05T08:05:42.421Z,98745.19
2023-03-05T08:06:47.121Z,98749.50
2023-03-05T08:07:51.165Z,98744.34
2023-03-05T08:08:55.515Z,98749.56
2023-03-05T08:09:59.205Z,98741.63
2023-03-05T08:11:13.587Z,98741.91
2023-03-05T08:12:18.174Z,98748.56
2023-03-05T08:13:23.153Z,98748.06
2023-03-05T08:14:27.016Z,98746.94
2023-03-05T08:15:31.805Z,98745.25
2023-03-05T08:16:35.505Z,98745.94
2023-03-05T08:17:39.147Z,98742.09
2023-03-05T08:18:43.617Z,98743.03
2023-03-05T08:19:47.605Z,98733.38
2023-03-05T08:20:51.207Z,98733.94
2023-03-05T08:21:56.525Z,98734.56
2023-03-05T08:23:00.183Z,98731.22
2023-03-05T08:24:12.213Z,98730.28
2023-03-05T08:25:16.416Z,98737.31
2023-03-05T08:26:24.372Z,98734.59
2023-03-05T08:27:28.476Z,98729.06
2023-03-05T08:28:34.338Z,98733.19
2023-03-05T08:29:38.524Z,98727.66
2023-03-05T08:30:44.746Z,98727.50
2023-03-05T08:31:49.898Z,98729.19
2023-03-05T08:32:54.533Z,98729.44
2023-03-05T08:34:01.707Z,98726.72
2023-03-05T08:35:08.269Z,98724.78
2023-03-05T08:36:12.163Z,98728.41
2023-03-05T08:37:16.253Z,98722.13
2023-03-05T08:38:21.203Z,98726.28
2023-03-05T08:39:25.159Z,98724.44
2023-03-05T08:40:29.000Z,98720.06
2023-03-05T08:41:33.142Z,98729.63
2023-03-05T08:42:36.809Z,98729.63
2023-03-05T08:43:40.445Z,98723.75
2023-03-05T08:44:44.196Z,98727.00
2023-03-05T08:45:49.861Z,98727.06
2023-03-05T08:46:53.729Z,98724.13
2023-03-05T08:47:58.307Z,98724.69
2023-03-05T08:49:01.986Z,98729.16
2023-03-05T08:50:08.627Z,98720.25
2023-03-05T08:51:20.699Z,98723.16
2023-03-05T08:52:25.283Z,98725.88
2023-03-05T08:53:28.847Z,98720.28
2023-03-05T08:54:33.936Z,98730.38
2023-03-05T08:55:38.286Z,98726.16
2023-03-05T08:56:42.049Z,98720.44
2023-03-05T08:57:45.831Z,98723.44
2023-03-05T08:58:49.649Z,98720.81
2023-03-05T08:59:53.418Z,98712.94
2023-03-05T09:00:57.524Z,98718.31
2023-03-05T09:02:03.047Z,98713.50
2023-03-05T09:03:11.767Z,98710.81
2023-03-05T09:04:16.062Z,98711.84
2023-03-05T09:05:26.430Z,98707.41
2023-03-05T09:06:30.474Z,98714.28
2023-03-05T09:07:34.230Z,98713.63
2023-03-05T09:08:38.592Z,98714.34
2023-03-05T09:09:42.181Z,98711.72
2023-03-05T09:10:46.450Z,98712.56
2023-03-05T09:11:52.155Z,98708.53
2023-03-05T09:12:56.737Z,98703.88
2023-03-05T09:14:00.551Z,98707.28
2023-03-05T09:15:11.873Z,98708.97
2023-03-05T09:16:18.620Z,98709.13
2023-03-05T09:17:23.789Z,98710.81
2023-03-05T09:18:28.550Z,98698.50
2023-03-05T09:19:32.268Z,98702.03
2023-03-05T09:20:37.805Z,98697.38
2023-03-05T09:21:42.712Z,98695.69
2023-03-05T09:22:47.181Z,98690.06
2023-03-05T09:23:51.328Z,98696.03
2023-03-05T09:24:54.980Z,98691.06
2023-03-05T09:25:58.647Z,98687.38
2023-03-05T09:27:02.271Z,98690.31
2023-03-05T09:28:08.932Z,98691.91
2023-03-05T09:29:15.789Z,98687.28
2023-03-05T09:30:20.600Z,98686.88
2023-03-05T09:31:24.609Z,98693.00
2023-03-05T09:32:31.739Z,98694.59
2023-03-05T09:33:37.770Z,98692.59
2023-03-05T09:34:42.386Z,98688.59
2023-03-05T09:35:46.094Z,98683.19
2023-03-05T09:36:50.436Z,98688.34
2023-03-05T09:37:55.295Z,98691.66
2023-03-05T09:38:59.600Z,98694.22
2023-03-05T09:40:04.252Z,98679.47
2023-03-05T09:41:47.498Z,98682.69
2023-03-05T09:43:04.566Z,98677.81
2023-03-05T09:44:18.281Z,98680.22
2023-03-05T09:45:42.215Z,98681.56
2023-03-05T09:47:16.280Z,98681.72
2023-03-05T09:48:40.896Z,98677.56
2023-03-05T09:49:58.555Z,98672.31
2023-03-05T09:51:07.754Z,98675.34
2023-03-05T09:53:09.162Z,98666.97
2023-03-05T09:54:43.523Z,98665.09
2023-03-05T09:55:54.189Z,98662.44
2023-03-05T09:57:05.202Z,98661.41
2023-03-05T09:58:34.217Z,98667.09
2023-03-05T10:00:10.528Z,98667.31
2023-03-05T10:01:27.447Z,98657.75
2023-03-05T10:02:37.483Z,98657.00
2023-03-05T10:04:13.439Z,98653.44
2023-03-05T10:05:31.594Z,98652.75
2023-03-05T10:07:10.204Z,98660.78
2023-03-05T10:08:19.427Z,98646.41
2023-03-05T10:09:52.173Z,98648.09
2023-03-05T10:10:56.196Z,98645.47
2023-03-05T10:12:39.179Z,98638.28
2023-03-05T10:13:46.595Z,98647.69
2023-03-05T10:14:50.597Z,98639.13
2023-03-05T10:16:08.173Z,98641.00
2023-03-05T10:17:55.416Z,98636.31
2023-03-05T10:19:02.829Z,98641.94
2023-03-05T10:20:34.918Z,98635.16
2023-03-05T10:22:03.751Z,98636.69
2023-03-05T10:23:38.798Z,98635.75
2023-03-05T10:24:57.750Z,98636.06
2023-03-05T10:26:54.666Z,98640.16
2023-03-05T10:28:21.475Z,98626.84
2023-03-05T10:30:12.746Z,98623.06
2023-03-05T10:31:44.457Z,98625.63
2023-03-05T10:33:23.318Z,98628.09
2023-03-05T10:34:54.683Z,98623.91
2023-03-05T10:36:36.290Z,98623.47
2023-03-05T10:38:23.369Z,98622.13
2023-03-05T10:39:47.492Z,98619.50
2023-03-05T10:41:00.833Z,98625.53
2023-03-05T10:42:36.765Z,98618.63
2023-03-05T10:43:52.284Z,98614.91
2023-03-05T10:45:09.895Z,98623.47
2023-03-05T10:46:18.863Z,98615.41
2023-03-05T10:47:55.723Z,98612.00
2023-03-05T10:49:37.111Z,98617.38
2023-03-05T10:50:56.826Z,98602.28
2023-03-05T10:52:18.671Z,98607.97
2023-03-05T10:53:32.130Z,98611.06
2023-03-05T10:54:41.970Z,98612.75
2023-03-05T10:55:45.519Z,98612.06
2023-03-05T10:56:49.177Z,98604.84
2023-03-05T10:57:53.208Z,98605.78
2023-03-05T10:58:56.746Z,98608.84
2023-03-05T11:00:08.390Z,98605.28
2023-03-05T11:01:12.604Z,98613.84
2023-03-05T11:02:17.876Z,98600.88
2023-03-05T11:03:21.752Z,98610.03
2023-03-05T11:04:38.350Z,98604.19
2023-03-05T11:05:48.117Z,98593.91
2023-03-05T11:06:52.418Z,98592.91
2023-03-05T11:07:56.495Z,98594.59
2023-03-05T11:09:32.622Z,98594.69
2023-03-05T11:10:36.569Z,98587.75
2023-03-05T11:11:40.472Z,98581.22
2023-03-05T11:12:46.283Z,98590.50
2023-03-05T11:14:07.483Z,98580.16
2023-03-05T11:15:14.216Z,98586.63
2023-03-05T11:16:25.191Z,98584.19
2023-03-05T11:18:09.099Z,98586.31
2023-03-05T11:19:30.173Z,98593.09
2023-03-05T11:20:37.084Z,98593.41
2023-03-05T11:21:43.475Z,98587.31
2023-03-05T11:23:23.733Z,98584.44
2023-03-05T11:24:27.336Z,98584.59
2023-03-05T11:25:32.790Z,98589.00
2023-03-05T11:26:36.736Z,98586.66
2023-03-05T11:27:55.402Z,98588.44
2023-03-05T11:29:03.658Z,98583.41
2023-03-05T11:30:41.246Z,98584.34
2023-03-05T11:31:44.929Z,98591.00
2023-03-05T11:32:48.789Z,98591.44
2023-03-05T11:34:01.145Z,98587.44
2023-03-05T11:35:34.984Z,98590.47
2023-03-05T11:36:58.857Z,98596.22
2023-03-05T11:38:08.772Z,98599.78
2023-03-05T11:39:22.669Z,98591.91
2023-03-05T11:40:31.466Z,98592.03
2023-03-05T11:41:59.357Z,98594.41
2023-03-05T11:43:06.199Z,98594.31
2023-03-05T11:44:22.652Z,98598.72
2023-03-05T11:45:29.691Z,98598.88
2023-03-05T11:46:43.585Z,98604.72
2023-03-05T11:47:58.846Z,98589.66
2023-03-05T11:49:06.596Z,98584.50
2023-03-05T11:50:23.392Z,98579.41
2023-03-05T11:51:57.725Z,98585.06
2023-03-05T11:53:07.957Z,98579.72
2023-03-05T11:54:25.216Z,98578.81
2023-03-05T11:55:37.839Z,98576.50
2023-03-05T11:56:45.975Z,98582.34
2023-03-05T11:58:01.545Z,98572.47
2023-03-05T11:59:23.684Z,98575.41
2023-03-05T12:00:34.668Z,98566.69
2023-03-05T12:01:54.252Z,98564.97
2023-03-05T12:03:05.237Z,98564.66
2023-03-05T12:04:12.820Z,98558.47
2023-03-05T12:05:17.655Z,98556.03
2023-03-05T12:06:51.832Z,98559.66
2023-03-05T12:08:02.797Z,98557.81
2023-03-05T12:09:37.952Z,98560.56
2023-03-05T12:10:42.046Z,98560.56
2023-03-05T12:11:50.845Z,98561.50
2023-03-05T12:13:00.313Z,98559.50
2023-03-05T12:14:36.723Z,98561.34
2023-03-05T12:16:00.286Z,98564.44
2023-03-05T12:17:31.725Z,98562.75
2023-03-05T12:19:37.655Z,98568.19
2023-03-05T12:21:13.006Z,98557.91
2023-03-05T12:22:24.781Z,98562.41
2023-03-05T12:23:28.766Z,98568.09
2023-03-05T12:24:35.832Z,98558.44
2023-03-05T12:26:01.327Z,98553.06
2023-03-05T12:27:08.139Z,98560.31
2023-03-05T12:28:32.095Z,98556.47
2023-03-05T12:29:52.220Z,98553.13
2023-03-05T12:31:40.513Z,98559.00
2023-03-05T12:32:44.315Z,98552.59
2023-03-05T12:33:48.321Z,98552.69
2023-03-05T12:34:54.904Z,98561.47
2023-03-05T12:36:23.487Z,98556.16
2023-03-05T12:37:27.388Z,98552.16
2023-03-05T12:38:33.836Z,98555.38
2023-03-05T12:39:52.608Z,98550.13
2023-03-05T12:41:33.038Z,98544.72
2023-03-05T12:42:46.218Z,98539.47
2023-03-05T12:44:11.746Z,98542.88
2023-03-05T12:45:16.352Z,98543.88
2023-03-05T12:46:29.474Z,98539.47
2023-03-05T12:47:33.672Z,98536.59
2023-03-05T12:48:44.496Z,98537.84
2023-03-05T12:49:48.919Z,98534.81
2023-03-05T12:50:58.954Z,98528.31
2023-03-05T12:52:08.240Z,98531.09
2023-03-05T12:53:19.335Z,98527.88
2023-03-05T12:54:39.831Z,98541.59
2023-03-05T12:56:22.474Z,98534.31
2023-03-05T12:57:29.659Z,98539.75
2023-03-05T12:59:06.697Z,98525.53
2023-03-05T13:00:26.548Z,98527.06
2023-03-05T13:02:03.284Z,98532.16
2023-03-05T13:03:18.227Z,98522.88
2023-03-05T13:04:32.055Z,98533.19
2023-03-05T13:05:51.960Z,98532.84
2023-03-05T13:07:20.057Z,98538.75
2023-03-05T13:08:28.603Z,98526.97
2023-03-05T13:09:36.719Z,98528.84
2023-03-05T13:10:41.769Z,98529.38
2023-03-05T13:11:52.315Z,98527.41
2023-03-05T13:12:58.784Z,98530.66
2023-03-05T13:14:03.139Z,98521.00
2023-03-05T13:15:15.469Z,98525.91
2023-03-05T13:16:36.809Z,98524.66
2023-03-05T13:18:00.501Z,98523.88
2023-03-05T13:19:15.463Z,98526.97
2023-03-05T13:20:39.363Z,98516.38
2023-03-05T13:21:43.610Z,98519.09
2023-03-05T13:23:24.324Z,98516.59
2023-03-05T13:24:29.370Z,98530.50
2023-03-05T13:25:33.139Z,98524.38
2023-03-05T13:26:41.300Z,98530.44
2023-03-05T13:27:45.467Z,98532.13
2023-03-05T13:29:22.122Z,98526.88
2023-03-05T13:30:29.474Z,98527.28